createdAt,value
2018-03-15T00:03:25.700Z,19.67
2018-03-15T00:05:53.165Z,19.40
2018-03-15T00:08:20.662Z,23.30
2018-03-15T00:10:48.325Z,20.00
2018-03-15T00:13:15.823Z,21.12
2018-03-15T00:15:43.255Z,19.05
2018-03-15T00:18:11.493Z,24.55
2018-03-15T00:20:39.024Z,25.17
2018-03-15T00:23:06.513Z,22.35
2018-03-15T00:25:33.973Z,22.00
2018-03-15T00:28:01.454Z,24.05
2018-03-15T00:30:28.926Z,23.73
2018-03-15T00:32:57.342Z,21.20
2018-03-15T00:35:24.758Z,23.80
2018-03-15T00:37:52.219Z,22.23
2018-03-15T00:40:20.466Z,24.90
2018-03-15T00:42:48.018Z,19.90
2018-03-15T00:45:15.595Z,26.55
2018-03-15T00:47:43.143Z,22.87
2018-03-15T00:50:10.714Z,24.75
2018-03-15T00:52:38.950Z,19.33
2018-03-15T00:55:06.562Z,20.90
2018-03-15T00:57:34.806Z,24.90
2018-03-15T01:00:02.365Z,22.10
2018-03-15T01:02:29.838Z,22.23
2018-03-15T01:04:57.310Z,26.40
2018-03-15T01:07:25.541Z,30.40
2018-03-15T01:09:53.012Z,26.17
2018-03-15T01:12:20.477Z,28.20
2018-03-15T01:14:47.980Z,21.33
2018-03-15T01:17:15.596Z,24.65
2018-03-15T01:19:43.056Z,22.00
2018-03-15T01:22:11.313Z,22.62
2018-03-15T01:24:38.853Z,28.67
2018-03-15T01:27:06.331Z,25.90
2018-03-15T01:29:34.565Z,27.17
2018-03-15T01:32:02.070Z,22.05
2018-03-15T01:34:29.524Z,31.00
2018-03-15T01:36:57.087Z,24.67
2018-03-15T01:39:24.558Z,27.42
2018-03-15T01:41:52.851Z,30.83
2018-03-15T01:44:20.381Z,27.00
2018-03-15T01:46:47.849Z,24.60
2018-03-15T01:49:16.107Z,23.55
2018-03-15T01:51:43.566Z,25.15
2018-03-15T01:54:11.838Z,27.23
2018-03-15T01:56:39.314Z,28.05
2018-03-15T01:59:07.550Z,27.27
2018-03-15T02:01:35.019Z,24.58
2018-03-15T02:04:02.591Z,21.48
2018-03-15T02:06:30.138Z,27.70
2018-03-15T02:08:57.610Z,26.50
2018-03-15T02:11:25.078Z,27.08
2018-03-15T02:13:53.300Z,28.48
2018-03-15T02:16:20.781Z,32.45
2018-03-15T02:18:48.349Z,26.65
2018-03-15T02:21:15.902Z,22.25
2018-03-15T02:23:43.460Z,27.05
2018-03-15T02:26:10.930Z,30.02
2018-03-15T02:28:39.166Z,28.27
2018-03-15T02:31:06.625Z,30.75
2018-03-15T02:33:34.113Z,27.67
2018-03-15T02:36:01.586Z,28.98
2018-03-15T02:38:29.902Z,26.37
2018-03-15T02:40:57.371Z,20.15
2018-03-15T02:43:24.842Z,28.33
2018-03-15T02:45:52.308Z,34.67
2018-03-15T02:48:19.778Z,26.12
2018-03-15T02:50:47.329Z,31.12
2018-03-15T02:53:15.557Z,26.73
2018-03-15T02:55:43.640Z,31.77
2018-03-15T02:58:11.172Z,26.17
2018-03-15T03:00:38.578Z,23.48
2018-03-15T03:03:06.065Z,32.80
2018-03-15T03:05:33.616Z,24.87
2018-03-15T03:08:02.585Z,25.02
2018-03-15T03:10:30.158Z,30.02
2018-03-15T03:12:57.770Z,28.87
2018-03-15T03:15:25.225Z,26.58
2018-03-15T03:17:52.735Z,35.60
2018-03-15T03:20:21.719Z,27.77
2018-03-15T03:22:49.277Z,29.30
2018-03-15T03:25:16.769Z,30.08
2018-03-15T03:27:44.997Z,27.45
2018-03-15T03:30:12.487Z,26.23
2018-03-15T03:32:39.945Z,26.65
2018-03-15T03:35:08.200Z,27.73
2018-03-15T03:37:35.670Z,28.80
2018-03-15T03:40:03.172Z,25.62
2018-03-15T03:42:30.729Z,31.98
2018-03-15T03:44:58.194Z,29.98
2018-03-15T03:47:25.653Z,25.83
2018-03-15T03:49:53.160Z,27.20
2018-03-15T03:52:21.395Z,24.90
2018-03-15T03:54:48.895Z,26.50
2018-03-15T03:57:17.158Z,26.25
2018-03-15T03:59:44.713Z,27.35
2018-03-15T04:02:12.177Z,21.12
2018-03-15T04:04:39.742Z,30.17
2018-03-15T04:07:08.013Z,24.40
2018-03-15T04:09:35.478Z,24.85
2018-03-15T04:12:03.721Z,26.60
2018-03-15T04:14:31.205Z,30.37
2018-03-15T04:16:58.673Z,29.10
2018-03-15T04:19:26.942Z,25.40
2018-03-15T04:21:55.178Z,28.50
2018-03-15T04:24:22.640Z,28.30
2018-03-15T04:26:50.109Z,30.27
2018-03-15T04:29:17.578Z,28.77
2018-03-15T04:31:45.087Z,31.05
2018-03-15T04:34:12.597Z,33.13
2018-03-15T04:36:40.061Z,27.05
2018-03-15T04:39:08.306Z,28.70
2018-03-15T04:41:35.893Z,30.12
2018-03-15T04:44:04.133Z,31.35
2018-03-15T04:46:31.597Z,29.17
2018-03-15T04:48:59.060Z,30.50
2018-03-15T04:51:26.531Z,32.28
2018-03-15T04:53:53.992Z,32.53
2018-03-15T04:56:22.255Z,27.80
2018-03-15T04:58:49.733Z,34.58
2018-03-15T05:01:17.965Z,25.10
2018-03-15T05:03:45.469Z,28.75
2018-03-15T05:06:13.701Z,28.02
2018-03-15T05:08:41.185Z,28.75
2018-03-15T05:11:09.419Z,28.80
2018-03-15T05:13:36.905Z,29.35
2018-03-15T05:16:04.465Z,29.55
2018-03-15T05:18:32.031Z,24.83
2018-03-15T05:20:59.493Z,24.87
2018-03-15T05:23:26.951Z,34.40
2018-03-15T05:25:55.187Z,30.65
2018-03-15T05:28:22.655Z,28.80
2018-03-15T05:30:50.129Z,32.60
2018-03-15T05:33:17.682Z,36.47
2018-03-15T05:35:45.154Z,25.27
2018-03-15T05:38:12.748Z,31.10
2018-03-15T05:40:41.031Z,29.75
2018-03-15T05:43:08.494Z,35.22
2018-03-15T05:45:35.957Z,35.65
2018-03-15T05:48:03.434Z,30.02
2018-03-15T05:50:31.006Z,31.90
2018-03-15T05:52:58.578Z,31.98
2018-03-15T05:55:26.134Z,34.85
2018-03-15T05:57:53.691Z,37.80
2018-03-15T06:00:21.154Z,42.00
2018-03-15T06:02:49.403Z,38.83
2018-03-15T06:05:16.860Z,42.92
2018-03-15T06:07:44.347Z,34.17
2018-03-15T06:10:12.646Z,38.58
2018-03-15T06:12:40.168Z,35.72
2018-03-15T06:15:08.407Z,36.95
2018-03-15T06:17:35.896Z,38.38
2018-03-15T06:20:03.361Z,34.60
2018-03-15T06:22:31.643Z,42.00
2018-03-15T06:24:59.910Z,38.42
2018-03-15T06:27:27.388Z,35.35
2018-03-15T06:29:55.622Z,38.58
2018-03-15T06:32:23.162Z,33.20
2018-03-15T06:34:50.629Z,39.10
2018-03-15T06:37:18.177Z,32.17
2018-03-15T06:39:45.641Z,38.53
2018-03-15T06:42:13.105Z,33.22
2018-03-15T06:44:41.403Z,34.45
2018-03-15T06:47:09.679Z,30.95
2018-03-15T06:49:37.234Z,45.97
2018-03-15T06:52:04.722Z,45.58
2018-03-15T06:54:32.233Z,42.65
2018-03-15T06:56:59.702Z,37.03
2018-03-15T06:59:27.953Z,34.17
2018-03-15T07:01:55.489Z,39.38
2018-03-15T07:04:22.949Z,39.08
2018-03-15T07:06:50.504Z,40.10
2018-03-15T07:09:17.965Z,36.72
2018-03-15T07:11:45.449Z,39.83
2018-03-15T07:14:12.922Z,49.72
2018-03-15T07:16:40.459Z,36.13
2018-03-15T07:19:07.942Z,38.78
2018-03-15T07:21:35.418Z,35.70
2018-03-15T07:24:02.894Z,33.58
2018-03-15T07:26:30.462Z,34.80
2018-03-15T07:28:57.977Z,37.30
2018-03-15T07:31:25.461Z,35.00
2018-03-15T07:33:52.931Z,29.37
2018-03-15T07:36:20.464Z,29.98
2018-03-15T07:38:47.898Z,31.00
2018-03-15T07:41:15.367Z,36.33
2018-03-15T07:43:43.630Z,29.45
2018-03-15T07:46:11.106Z,31.55
2018-03-15T07:48:39.441Z,34.13
2018-03-15T07:51:06.994Z,33.60
2018-03-15T07:53:34.465Z,31.95
2018-03-15T07:56:01.940Z,33.95
2018-03-15T07:58:29.405Z,32.38
2018-03-15T08:00:57.654Z,40.40
2018-03-15T08:03:25.328Z,29.98
2018-03-15T08:05:52.787Z,32.53
2018-03-15T08:08:20.259Z,29.55
2018-03-15T08:10:48.509Z,30.02
2018-03-15T08:13:15.978Z,34.40
2018-03-15T08:15:43.467Z,43.70
2018-03-15T08:18:10.933Z,30.42
2018-03-15T08:20:38.453Z,30.55
2018-03-15T08:23:05.902Z,37.63
2018-03-15T08:25:33.371Z,31.12
2018-03-15T08:28:01.605Z,37.20
2018-03-15T08:30:29.090Z,40.03
2018-03-15T08:32:56.653Z,33.75
2018-03-15T08:35:24.202Z,34.67
2018-03-15T08:37:51.820Z,31.05
2018-03-15T08:40:19.912Z,36.05
2018-03-15T08:42:47.380Z,37.28
2018-03-15T08:45:14.845Z,39.00
2018-03-15T08:47:42.339Z,38.63
2018-03-15T08:50:10.595Z,29.95
2018-03-15T08:52:38.143Z,32.13
2018-03-15T08:55:06.490Z,36.42
2018-03-15T08:57:33.959Z,41.92
2018-03-15T09:00:01.439Z,38.25
2018-03-15T09:02:28.909Z,33.65
2018-03-15T09:04:57.370Z,35.03
2018-03-15T09:07:25.446Z,35.55
2018-03-15T09:09:53.002Z,34.65
2018-03-15T09:12:20.570Z,33.42
2018-03-15T09:14:48.124Z,34.35
2018-03-15T09:17:15.594Z,34.83
2018-03-15T09:19:43.825Z,28.05
2018-03-15T09:22:11.318Z,30.08
2018-03-15T09:24:38.861Z,33.95
2018-03-15T09:27:06.416Z,29.52
2018-03-15T09:29:33.978Z,30.85
2018-03-15T09:32:01.517Z,38.13
2018-03-15T09:34:29.125Z,29.87
2018-03-15T09:36:56.535Z,38.25
2018-03-15T09:39:24.117Z,29.40
2018-03-15T09:41:51.595Z,30.60
2018-03-15T09:44:19.845Z,35.33
2018-03-15T09:46:47.404Z,34.38
2018-03-15T09:49:15.020Z,31.60
2018-03-15T09:51:42.527Z,37.65
2018-03-15T09:54:10.006Z,31.90
2018-03-15T09:56:37.490Z,31.05
2018-03-15T09:59:04.973Z,30.60
2018-03-15T10:01:32.462Z,31.52
2018-03-15T10:04:00.718Z,26.77
2018-03-15T10:06:28.192Z,30.15
2018-03-15T10:08:56.475Z,29.90
2018-03-15T10:11:24.794Z,33.63
2018-03-15T10:13:52.301Z,31.73
2018-03-15T10:16:19.788Z,34.05
2018-03-15T10:18:47.253Z,29.50
2018-03-15T10:21:14.731Z,26.65
2018-03-15T10:23:42.233Z,36.00
2018-03-15T10:26:10.478Z,30.37
2018-03-15T10:28:37.960Z,34.63
2018-03-15T10:31:06.212Z,29.77
2018-03-15T10:33:38.244Z,25.12
2018-03-15T10:36:05.721Z,29.80
2018-03-15T10:38:33.194Z,27.10
2018-03-15T10:41:00.772Z,25.40
2018-03-15T10:43:28.329Z,30.05
2018-03-15T10:45:55.830Z,30.75
2018-03-15T10:48:23.450Z,23.77
2018-03-15T10:50:51.730Z,28.73
2018-03-15T10:53:20.108Z,30.40
2018-03-15T10:55:47.668Z,23.50
2018-03-15T10:58:15.914Z,23.58
2018-03-15T11:00:49.131Z,24.35
2018-03-15T11:03:17.385Z,22.98
2018-03-15T11:05:46.376Z,24.77
2018-03-15T11:08:20.103Z,26.90
2018-03-15T11:10:48.388Z,30.65
2018-03-15T11:13:15.874Z,33.80
2018-03-15T11:15:43.388Z,24.83
2018-03-15T11:18:10.927Z,27.40
2018-03-15T11:20:38.510Z,28.67
2018-03-15T11:23:06.806Z,30.52
2018-03-15T11:25:34.298Z,32.70
2018-03-15T11:28:01.790Z,32.63
2018-03-15T11:30:29.270Z,28.80
2018-03-15T11:32:57.595Z,32.95
2018-03-15T11:35:25.144Z,26.60
2018-03-15T11:37:52.641Z,24.27
2018-03-15T11:40:20.121Z,29.75
2018-03-15T11:42:48.390Z,34.55
2018-03-15T11:45:16.705Z,28.70
2018-03-15T11:47:44.175Z,32.75
2018-03-15T11:50:11.670Z,29.77
2018-03-15T11:52:39.169Z,36.75
2018-03-15T11:55:06.647Z,28.08
2018-03-15T11:57:34.217Z,34.10
2018-03-15T12:00:01.752Z,34.00
2018-03-15T12:02:29.221Z,26.62
2018-03-15T12:04:56.847Z,29.98
2018-03-15T12:07:24.316Z,32.53
2018-03-15T12:09:51.808Z,30.58
2018-03-15T12:12:19.286Z,22.85
2018-03-15T12:14:46.772Z,31.80
2018-03-15T12:17:14.293Z,27.23
2018-03-15T12:19:41.764Z,24.35
2018-03-15T12:22:09.230Z,30.80
2018-03-15T12:24:37.473Z,26.77
2018-03-15T12:27:04.965Z,27.45
2018-03-15T12:29:33.202Z,31.90
2018-03-15T12:32:00.666Z,24.90
2018-03-15T12:34:28.210Z,24.90
2018-03-15T12:36:55.796Z,22.87
2018-03-15T12:39:23.273Z,24.80
2018-03-15T12:41:50.742Z,24.17
2018-03-15T12:44:18.973Z,23.25
2018-03-15T12:46:46.599Z,25.08
2018-03-15T12:49:14.057Z,24.10
2018-03-15T12:51:41.533Z,26.65
2018-03-15T12:54:09.026Z,22.83
2018-03-15T12:56:36.497Z,27.27
2018-03-15T12:59:04.729Z,18.60
2018-03-15T13:01:32.204Z,21.75
2018-03-15T13:03:59.715Z,20.10
2018-03-15T13:06:27.187Z,23.60
2018-03-15T13:08:54.700Z,20.08
2018-03-15T13:11:22.984Z,23.83
2018-03-15T13:13:50.434Z,19.00
2018-03-15T13:16:18.671Z,23.65
2018-03-15T13:18:46.147Z,20.30
2018-03-15T13:21:13.613Z,19.25
2018-03-15T13:23:41.846Z,23.65
2018-03-15T13:26:09.314Z,22.50
2018-03-15T13:28:36.802Z,19.20
2018-03-15T13:31:05.030Z,19.30
2018-03-15T13:33:32.512Z,22.73
2018-03-15T13:35:59.979Z,19.65
2018-03-15T13:38:28.219Z,19.52
2018-03-15T13:40:55.818Z,19.20
2018-03-15T13:43:23.476Z,19.50
2018-03-15T13:45:51.045Z,20.40
2018-03-15T13:48:19.360Z,20.37
2018-03-15T13:50:46.831Z,17.27
2018-03-15T13:53:14.312Z,22.35
2018-03-15T13:55:41.778Z,20.05
2018-03-15T13:58:09.438Z,21.45
2018-03-15T14:00:37.000Z,21.20
2018-03-15T14:03:04.474Z,25.05
2018-03-15T14:05:32.706Z,19.85
2018-03-15T14:08:00.169Z,22.23
2018-03-15T14:10:27.641Z,18.08
2018-03-15T14:12:55.204Z,18.17
2018-03-15T14:15:23.433Z,23.52
2018-03-15T14:17:50.902Z,19.98
2018-03-15T14:20:18.380Z,23.02
2018-03-15T14:22:45.885Z,24.40
2018-03-15T14:25:13.359Z,26.42
2018-03-15T14:27:40.826Z,29.52
2018-03-15T14:30:08.329Z,25.05
2018-03-15T14:32:36.561Z,23.58
2018-03-15T14:35:04.029Z,16.48
2018-03-15T14:37:31.602Z,20.05
2018-03-15T14:40:00.583Z,18.20
2018-03-15T14:42:28.053Z,22.67
2018-03-15T14:44:55.636Z,19.20
2018-03-15T14:47:23.881Z,26.70
2018-03-15T14:49:51.357Z,23.62
2018-03-15T14:52:18.916Z,21.85
2018-03-15T14:54:47.192Z,20.40
2018-03-15T14:57:14.687Z,23.87
2018-03-15T14:59:42.158Z,22.42
2018-03-15T15:02:09.625Z,23.08
2018-03-15T15:04:37.107Z,23.08
2018-03-15T15:07:04.731Z,19.77
2018-03-15T15:09:32.234Z,22.85
2018-03-15T15:11:59.697Z,20.35
2018-03-15T15:14:27.953Z,32.80
2018-03-15T15:16:55.443Z,21.25
2018-03-15T15:19:23.677Z,22.67
2018-03-15T15:21:51.160Z,19.05
2018-03-15T15:24:18.617Z,20.70
2018-03-15T15:26:46.094Z,21.35
2018-03-15T15:29:14.322Z,25.17
2018-03-15T15:31:41.807Z,19.73
2018-03-15T15:34:09.286Z,21.92
2018-03-15T15:36:36.830Z,20.27
2018-03-15T15:39:05.066Z,19.60
2018-03-15T15:41:32.558Z,21.45
2018-03-15T15:44:00.829Z,19.98
2018-03-15T15:46:29.074Z,19.92
2018-03-15T15:48:56.550Z,21.45
2018-03-15T15:51:24.045Z,26.65
2018-03-15T15:53:51.518Z,23.05
2018-03-15T15:56:18.974Z,20.12
2018-03-15T15:58:46.472Z,27.85
2018-03-15T16:01:14.007Z,22.35
2018-03-15T16:03:41.491Z,20.60
2018-03-15T16:06:08.970Z,21.98
2018-03-15T16:08:37.205Z,25.33
2018-03-15T16:11:04.677Z,25.25
2018-03-15T16:13:32.237Z,23.10
2018-03-15T16:15:59.704Z,22.83
2018-03-15T16:18:27.174Z,20.25
2018-03-15T16:20:55.434Z,22.75
2018-03-15T16:23:23.759Z,22.00
2018-03-15T16:25:51.232Z,24.25
2018-03-15T16:28:18.697Z,22.33
2018-03-15T16:30:46.169Z,22.98
2018-03-15T16:33:13.738Z,23.73
2018-03-15T16:35:41.297Z,25.98
2018-03-15T16:38:08.761Z,22.73
2018-03-15T16:40:36.220Z,29.37
2018-03-15T16:43:04.517Z,27.65
2018-03-15T16:45:31.949Z,22.08
2018-03-15T16:47:59.450Z,25.33
2018-03-15T16:50:26.954Z,22.90
2018-03-15T16:52:54.414Z,19.15
2018-03-15T16:55:21.973Z,25.70
2018-03-15T16:57:50.942Z,27.15
2018-03-15T17:00:18.810Z,20.45
2018-03-15T17:02:46.273Z,24.63
2018-03-15T17:05:13.745Z,23.77
2018-03-15T17:07:41.303Z,30.30
2018-03-15T17:10:08.860Z,22.40
2018-03-15T17:12:36.421Z,24.95
2018-03-15T17:15:03.889Z,24.40
2018-03-15T17:17:32.149Z,30.12
2018-03-15T17:19:59.710Z,27.17
2018-03-15T17:22:27.266Z,23.27
2018-03-15T17:24:54.840Z,23.70
2018-03-15T17:27:22.305Z,25.70
2018-03-15T17:29:50.526Z,24.52
2018-03-15T17:32:17.998Z,25.23
2018-03-15T17:34:45.467Z,26.98
2018-03-15T17:37:12.961Z,22.77
2018-03-15T17:39:41.186Z,26.90
2018-03-15T17:42:08.654Z,31.12
2018-03-15T17:44:36.117Z,25.25
2018-03-15T17:47:03.683Z,28.12
2018-03-15T17:49:31.142Z,26.77
2018-03-15T17:51:58.607Z,30.55
2018-03-15T17:54:26.848Z,26.73
2018-03-15T17:56:54.313Z,26.95
2018-03-15T17:59:21.781Z,32.17
2018-03-15T18:01:49.250Z,29.50
2018-03-15T18:04:17.516Z,32.28
2018-03-15T18:06:45.816Z,28.48
2018-03-15T18:09:14.065Z,32.15
2018-03-15T18:11:41.527Z,34.83
2018-03-15T18:14:08.996Z,32.90
2018-03-15T18:16:37.249Z,32.35
2018-03-15T18:19:04.759Z,33.40
2018-03-15T18:21:32.227Z,33.22
2018-03-15T18:23:59.691Z,36.20
2018-03-15T18:26:27.205Z,32.47
2018-03-15T18:28:55.442Z,34.05
2018-03-15T18:31:22.907Z,35.53
2018-03-15T18:33:50.387Z,34.80
2018-03-15T18:36:18.604Z,34.65
2018-03-15T18:38:46.110Z,38.50
2018-03-15T18:41:13.576Z,35.65
2018-03-15T18:43:41.810Z,36.60
2018-03-15T18:46:09.291Z,35.28
2018-03-15T18:48:36.753Z,38.47
2018-03-15T18:51:04.213Z,32.67
2018-03-15T18:53:32.438Z,34.58
2018-03-15T18:56:00.080Z,42.22
2018-03-15T18:58:27.543Z,36.50
2018-03-15T19:00:55.014Z,38.25
2018-03-15T19:03:22.473Z,38.28
2018-03-15T19:05:49.947Z,40.63
2018-03-15T19:08:18.396Z,39.95
2018-03-15T19:10:45.908Z,39.90
2018-03-15T19:13:14.187Z,44.33
2018-03-15T19:15:41.729Z,45.05
2018-03-15T19:18:09.214Z,37.28
2018-03-15T19:20:37.468Z,49.17
2018-03-15T19:23:04.930Z,47.47
2018-03-15T19:25:33.165Z,49.90
2018-03-15T19:28:00.637Z,42.65
2018-03-15T19:30:28.105Z,40.30
2018-03-15T19:32:57.105Z,38.75
2018-03-15T19:35:24.569Z,42.00
2018-03-15T19:37:52.842Z,39.53
2018-03-15T19:40:20.268Z,39.90
2018-03-15T19:42:47.732Z,44.40
2018-03-15T19:45:15.194Z,43.42
2018-03-15T19:47:42.677Z,45.83
2018-03-15T19:50:10.918Z,51.92
2018-03-15T19:52:38.397Z,42.47
2018-03-15T19:55:05.861Z,52.95
2018-03-15T19:57:33.422Z,42.45
2018-03-15T20:00:01.654Z,50.12
2018-03-15T20:02:29.129Z,43.03
2018-03-15T20:04:57.146Z,46.50
2018-03-15T20:07:24.610Z,46.00
2018-03-15T20:09:52.087Z,45.58
2018-03-15T20:12:19.688Z,46.42
2018-03-15T20:14:47.243Z,49.55
2018-03-15T20:17:15.477Z,49.95
2018-03-15T20:19:42.952Z,50.35
2018-03-15T20:22:10.410Z,46.05
2018-03-15T20:24:37.908Z,47.65
2018-03-15T20:27:05.446Z,47.67
2018-03-15T20:29:34.436Z,49.17
2018-03-15T20:32:01.900Z,43.97
2018-03-15T20:34:29.393Z,41.92
2018-03-15T20:36:56.918Z,50.67
2018-03-15T20:39:30.036Z,55.03
2018-03-15T20:41:57.502Z,50.45
2018-03-15T20:44:24.974Z,53.47
2018-03-15T20:46:58.168Z,56.15
2018-03-15T20:49:25.669Z,47.97
2018-03-15T20:51:53.146Z,47.20
2018-03-15T20:54:21.415Z,52.50
2018-03-15T20:56:49.658Z,52.70
2018-03-15T20:59:17.233Z,50.83
2018-03-15T21:01:44.696Z,60.47
2018-03-15T21:04:12.196Z,55.03
2018-03-15T21:06:39.662Z,50.40
2018-03-15T21:09:07.152Z,55.80
2018-03-15T21:11:34.621Z,58.38
2018-03-15T21:14:02.094Z,53.53
2018-03-15T21:16:30.457Z,68.97
2018-03-15T21:18:57.945Z,61.47
2018-03-15T21:21:25.413Z,55.35
2018-03-15T21:23:52.919Z,60.00
2018-03-15T21:26:20.433Z,54.35
2018-03-15T21:28:47.993Z,60.63
2018-03-15T21:31:15.465Z,56.80
2018-03-15T21:33:42.936Z,54.05
2018-03-15T21:36:10.422Z,60.92
2018-03-15T21:38:38.659Z,61.30
2018-03-15T21:41:06.116Z,56.05
2018-03-15T21:43:33.581Z,61.45
2018-03-15T21:46:01.041Z,59.85
2018-03-15T21:48:28.496Z,54.97
2018-03-15T21:50:55.961Z,64.65
2018-03-15T21:53:23.506Z,65.12
2018-03-15T21:55:50.994Z,72.68
2018-03-15T21:58:19.232Z,62.20
2018-03-15T22:00:46.700Z,60.63
2018-03-15T22:03:14.187Z,55.63
2018-03-15T22:05:41.661Z,49.72
2018-03-15T22:08:09.130Z,60.22
2018-03-15T22:10:36.632Z,59.75
2018-03-15T22:13:04.092Z,67.95
2018-03-15T22:15:31.752Z,65.72
2018-03-15T22:17:59.212Z,58.45
2018-03-15T22:20:27.651Z,58.92
2018-03-15T22:22:55.152Z,66.40
2018-03-15T22:25:22.705Z,63.25
2018-03-15T22:27:50.169Z,63.45
2018-03-15T22:30:17.727Z,66.70
2018-03-15T22:32:45.442Z,65.05
2018-03-15T22:35:12.923Z,66.15
2018-03-15T22:37:40.394Z,80.95
2018-03-15T22:40:07.921Z,63.83
2018-03-15T22:42:35.409Z,64.30
2018-03-15T22:45:02.866Z,63.70
2018-03-15T22:47:30.349Z,58.50
2018-03-15T22:49:58.585Z,65.35
2018-03-15T22:52:26.064Z,59.63
2018-03-15T22:54:53.521Z,68.12
2018-03-15T22:57:21.089Z,59.58
2018-03-15T22:59:48.540Z,64.50
2018-03-15T23:02:16.021Z,63.42
2018-03-15T23:04:44.410Z,67.87
2018-03-15T23:07:11.877Z,71.22
2018-03-15T23:09:39.357Z,65.03
2018-03-15T23:12:06.830Z,65.82
2018-03-15T23:14:34.291Z,73.10
2018-03-15T23:17:01.755Z,64.15
2018-03-15T23:19:29.308Z,71.15
2018-03-15T23:21:56.794Z,62.97
2018-03-15T23:24:25.027Z,64.47
2018-03-15T23:26:52.481Z,73.37
2018-03-15T23:29:19.942Z,66.75
2018-03-15T23:31:47.414Z,68.12
2018-03-15T23:34:14.926Z,66.72
2018-03-15T23:36:42.393Z,64.72
2018-03-15T23:39:09.866Z,69.25
2018-03-15T23:41:37.356Z,65.18
2018-03-15T23:44:04.901Z,66.87
2018-03-15T23:46:32.367Z,62.17
2018-03-15T23:48:59.835Z,68.55
2018-03-15T23:51:28.074Z,64.18
2018-03-15T23:53:55.532Z,60.30
2018-03-15T23:56:23.100Z,64.15
2018-03-15T23:58:50.616Z,62.08
